createdAt,value
2019-02-12T00:00:16.412Z,3.40
2019-02-12T00:03:00.660Z,3.30
2019-02-12T00:05:34.285Z,3.40
2019-02-12T00:08:05.852Z,3.40
2019-02-12T00:13:28.032Z,3.30
2019-02-12T00:15:56.424Z,3.20
2019-02-12T00:18:24.808Z,3.30
2019-02-12T00:20:57.782Z,3.30
2019-02-12T00:23:27.874Z,3.30
2019-02-12T00:25:56.858Z,3.40
2019-02-12T00:28:26.342Z,3.30
2019-02-12T00:30:54.726Z,3.20
2019-02-12T00:33:33.562Z,3.10
2019-02-12T00:36:15.223Z,3.10
2019-02-12T00:38:51.922Z,3.20
2019-02-12T00:41:30.760Z,3.10
2019-02-12T00:44:11.687Z,3.10
2019-02-12T00:46:42.438Z,3.10
2019-02-12T00:49:16.384Z,3.00
2019-02-12T00:51:46.370Z,3.00
2019-02-12T00:54:16.518Z,3.00
2019-02-12T00:56:47.657Z,3.00
2019-02-12T00:59:17.363Z,2.90
2019-02-12T01:01:47.182Z,2.80
2019-02-12T01:04:21.644Z,2.80
2019-02-12T01:06:52.730Z,2.80
2019-02-12T01:09:36.778Z,2.70
2019-02-12T01:12:19.829Z,2.90
2019-02-12T01:14:48.212Z,2.90
2019-02-12T01:17:21.178Z,2.90
2019-02-12T01:19:55.601Z,2.90
2019-02-12T01:22:23.956Z,2.80
2019-02-12T01:24:52.318Z,2.80
2019-02-12T01:27:22.667Z,2.80
2019-02-12T01:29:51.026Z,2.80
2019-02-12T01:32:19.382Z,2.80
2019-02-12T01:34:47.754Z,2.80
2019-02-12T01:37:16.154Z,2.80
2019-02-12T01:39:46.496Z,2.90
2019-02-12T01:42:17.334Z,2.80
2019-02-12T01:44:47.877Z,2.80
2019-02-12T01:47:24.342Z,2.70
2019-02-12T01:49:53.631Z,2.80
2019-02-12T01:52:23.320Z,2.80
2019-02-12T01:54:56.308Z,2.80
2019-02-12T01:57:27.992Z,2.80
2019-02-12T02:00:03.947Z,2.80
2019-02-12T02:02:37.963Z,2.80
2019-02-12T02:05:26.510Z,2.80
2019-02-12T02:07:58.154Z,2.80
2019-02-12T02:10:28.905Z,2.80
2019-02-12T02:12:57.576Z,2.70
2019-02-12T02:15:27.580Z,2.60
2019-02-12T02:17:57.498Z,2.60
2019-02-12T02:20:27.435Z,2.70
2019-02-12T02:22:57.419Z,2.70
2019-02-12T02:25:31.043Z,2.60
2019-02-12T02:28:00.986Z,2.60
2019-02-12T02:30:33.425Z,2.60
2019-02-12T02:33:01.787Z,2.60
2019-02-12T02:35:30.836Z,2.60
2019-02-12T02:38:00.270Z,2.60
2019-02-12T02:40:40.200Z,2.50
2019-02-12T02:43:12.016Z,2.50
2019-02-12T02:45:49.132Z,2.40
2019-02-12T02:48:25.926Z,2.40
2019-02-12T02:51:14.677Z,2.40
2019-02-12T02:53:52.701Z,2.40
2019-02-12T02:56:23.481Z,2.30
2019-02-12T02:58:53.156Z,2.30
2019-02-12T03:01:21.456Z,2.30
2019-02-12T03:03:50.650Z,2.30
2019-02-12T03:06:19.051Z,2.20
2019-02-12T03:08:47.419Z,2.30
2019-02-12T03:11:18.234Z,2.10
2019-02-12T03:14:10.571Z,2.20
2019-02-12T03:16:43.147Z,2.20
2019-02-12T03:19:11.512Z,2.10
2019-02-12T03:21:45.543Z,2.10
2019-02-12T03:24:18.654Z,2.10
2019-02-12T03:29:44.510Z,2.10
2019-02-12T03:32:30.002Z,2.00
2019-02-12T03:37:57.078Z,2.00
2019-02-12T03:40:33.791Z,2.10
2019-02-12T03:43:07.888Z,2.10
2019-02-12T03:45:36.379Z,2.10
2019-02-12T03:48:05.407Z,2.10
2019-02-12T03:50:33.717Z,2.00
2019-02-12T03:53:07.546Z,2.00
2019-02-12T03:55:35.712Z,2.00
2019-02-12T03:58:04.079Z,2.00
2019-02-12T04:00:38.915Z,2.00
2019-02-12T04:03:08.896Z,2.00
2019-02-12T04:05:56.220Z,2.00
2019-02-12T04:08:33.120Z,2.00
2019-02-12T04:11:08.182Z,2.00
2019-02-12T04:13:42.357Z,2.00
2019-02-12T04:16:16.718Z,2.00
2019-02-12T04:18:58.156Z,2.00
2019-02-12T04:21:33.350Z,2.00
2019-02-12T04:24:09.802Z,1.90
2019-02-12T04:26:41.159Z,2.00
2019-02-12T04:29:24.024Z,2.00
2019-02-12T04:32:11.689Z,2.00
2019-02-12T04:34:50.807Z,2.00
2019-02-12T04:37:33.096Z,2.00
2019-02-12T04:46:07.685Z,2.00
2019-02-12T04:48:42.227Z,1.90
2019-02-12T04:51:15.264Z,1.90
2019-02-12T04:53:49.887Z,1.90
2019-02-12T04:56:18.313Z,1.90
2019-02-12T04:58:52.342Z,1.80
2019-02-12T05:01:21.905Z,1.80
2019-02-12T05:03:53.683Z,1.80
2019-02-12T05:06:26.957Z,1.90
2019-02-12T05:09:14.038Z,1.90
2019-02-12T05:11:53.999Z,1.80
2019-02-12T05:14:42.933Z,1.80
2019-02-12T05:17:16.973Z,1.80
2019-02-12T05:19:50.131Z,1.70
2019-02-12T05:25:11.865Z,1.70
2019-02-12T05:30:36.748Z,1.70
2019-02-12T05:33:09.109Z,1.70
2019-02-12T05:35:41.992Z,1.70
2019-02-12T05:38:11.373Z,1.70
2019-02-12T05:40:42.041Z,1.70
2019-02-12T05:43:14.221Z,1.70
2019-02-12T05:45:47.132Z,1.70
2019-02-12T05:51:37.713Z,1.80
2019-02-12T05:54:14.130Z,1.70
2019-02-12T05:56:47.532Z,1.70
2019-02-12T05:59:31.632Z,1.70
2019-02-12T06:02:08.312Z,1.80
2019-02-12T06:04:36.710Z,1.70
2019-02-12T06:07:06.384Z,1.70
2019-02-12T06:09:34.765Z,1.70
2019-02-12T06:12:03.523Z,1.60
2019-02-12T06:14:31.890Z,1.70
2019-02-12T06:17:00.263Z,1.70
2019-02-12T06:19:28.665Z,1.70
2019-02-12T06:21:57.079Z,1.70
2019-02-12T06:24:29.782Z,1.60
2019-02-12T06:27:00.142Z,1.70
2019-02-12T06:29:32.282Z,1.60
2019-02-12T06:32:00.669Z,1.60
2019-02-12T06:34:30.356Z,1.60
2019-02-12T06:36:58.661Z,1.70
2019-02-12T06:39:29.723Z,1.60
2019-02-12T06:41:59.640Z,1.70
2019-02-12T06:44:28.021Z,1.70
2019-02-12T06:46:56.398Z,1.60
2019-02-12T06:49:24.770Z,1.70
2019-02-12T06:51:53.123Z,1.70
2019-02-12T06:54:21.545Z,1.70
2019-02-12T06:56:49.918Z,1.80
2019-02-12T06:59:19.999Z,1.70
2019-02-12T07:01:48.391Z,1.70
2019-02-12T07:04:18.146Z,1.70
2019-02-12T07:07:01.677Z,1.70
2019-02-12T07:09:39.294Z,1.80
2019-02-12T07:12:18.030Z,1.80
2019-02-12T07:15:00.766Z,1.80
2019-02-12T07:17:53.299Z,1.70
2019-02-12T07:20:40.492Z,1.80
2019-02-12T07:23:21.591Z,1.80
2019-02-12T07:25:58.894Z,1.80
2019-02-12T07:28:35.962Z,1.90
2019-02-12T07:34:08.047Z,1.80
2019-02-12T07:36:57.436Z,1.90
2019-02-12T07:39:31.535Z,1.80
2019-02-12T07:42:18.327Z,1.90
2019-02-12T07:44:54.040Z,1.90
2019-02-12T07:47:40.646Z,1.90
2019-02-12T07:50:28.918Z,1.80
2019-02-12T07:53:01.967Z,2.00
2019-02-12T07:55:37.628Z,1.90
2019-02-12T07:58:36.742Z,2.00
2019-02-12T08:01:06.999Z,1.80
2019-02-12T08:03:45.855Z,2.00
2019-02-12T08:06:27.247Z,2.00
2019-02-12T08:09:31.067Z,2.10
2019-02-12T08:12:20.991Z,2.20
2019-02-12T08:15:03.188Z,2.40
2019-02-12T08:17:33.249Z,2.40
2019-02-12T08:20:19.782Z,2.30
2019-02-12T08:22:58.636Z,2.30
2019-02-12T08:25:55.996Z,2.40
2019-02-12T08:28:38.010Z,2.30
2019-02-12T08:31:11.780Z,2.40
2019-02-12T08:33:50.434Z,2.50
2019-02-12T08:36:20.496Z,2.40
2019-02-12T08:39:11.801Z,2.40
2019-02-12T08:41:47.673Z,2.50
2019-02-12T08:44:26.796Z,2.30
2019-02-12T08:47:02.967Z,2.40
2019-02-12T08:49:47.370Z,2.50
2019-02-12T08:52:25.822Z,2.60
2019-02-12T08:54:58.842Z,2.50
2019-02-12T08:57:51.494Z,2.50
2019-02-12T09:00:21.555Z,2.50
2019-02-12T09:03:25.201Z,2.60
2019-02-12T09:06:00.864Z,2.60
2019-02-12T09:08:52.084Z,2.60
2019-02-12T09:11:28.054Z,2.60
2019-02-12T09:13:58.170Z,2.60
2019-02-12T09:16:49.089Z,2.60
2019-02-12T09:19:41.270Z,2.70
2019-02-12T09:22:29.327Z,2.60
2019-02-12T09:25:08.083Z,2.70
2019-02-12T09:27:54.571Z,2.70
2019-02-12T09:30:57.407Z,2.80
2019-02-12T09:33:33.478Z,2.80
2019-02-12T09:36:12.520Z,2.90
2019-02-12T09:39:05.027Z,2.90
2019-02-12T09:41:48.690Z,2.90
2019-02-12T09:47:27.730Z,2.80
2019-02-12T09:50:11.232Z,2.80
2019-02-12T09:53:00.932Z,2.70
2019-02-12T09:55:38.390Z,2.70
2019-02-12T09:58:31.450Z,2.70
2019-02-12T10:01:30.215Z,2.70
2019-02-12T10:04:22.214Z,2.70
2019-02-12T10:06:59.455Z,2.80
2019-02-12T10:10:01.388Z,2.80
2019-02-12T10:12:39.519Z,2.90
2019-02-12T10:15:29.127Z,2.90
2019-02-12T10:18:24.786Z,2.80
2019-02-12T10:21:14.358Z,2.80
2019-02-12T10:24:06.749Z,2.80
2019-02-12T10:26:41.610Z,2.70
2019-02-12T10:29:26.502Z,2.70
2019-02-12T10:32:08.373Z,2.80
2019-02-12T10:34:30.191Z,2.70
2019-02-12T10:37:00.670Z,2.70
2019-02-12T10:39:34.472Z,2.80
2019-02-12T10:42:06.540Z,2.90
2019-02-12T10:44:38.043Z,2.90
2019-02-12T10:47:12.783Z,2.90
2019-02-12T10:49:47.142Z,2.90
2019-02-12T10:52:23.408Z,2.90
2019-02-12T10:57:45.271Z,2.90
2019-02-12T11:00:18.235Z,2.80
2019-02-12T11:02:50.632Z,3.00
2019-02-12T11:05:44.360Z,3.00
2019-02-12T11:08:14.235Z,2.90
2019-02-12T11:10:47.422Z,2.80
2019-02-12T11:13:28.286Z,2.80
2019-02-12T11:16:00.735Z,2.90
2019-02-12T11:18:34.596Z,2.80
2019-02-12T11:21:11.530Z,2.70
2019-02-12T11:23:36.040Z,2.80
2019-02-12T11:26:08.583Z,2.90
2019-02-12T11:28:46.190Z,2.90
2019-02-12T11:31:20.056Z,3.00
2019-02-12T11:33:58.368Z,2.80
2019-02-12T11:36:31.764Z,2.70
2019-02-12T11:39:00.908Z,2.80
2019-02-12T11:41:29.280Z,2.80
2019-02-12T11:43:57.666Z,2.80
2019-02-12T11:46:26.064Z,2.70
2019-02-12T11:48:54.532Z,2.70
2019-02-12T11:51:22.901Z,2.70
2019-02-12T11:53:52.871Z,2.70
2019-02-12T11:56:21.228Z,2.70
2019-02-12T11:58:49.677Z,2.70
2019-02-12T12:01:19.057Z,2.70
2019-02-12T12:03:47.415Z,2.80
2019-02-12T12:06:16.821Z,2.80
2019-02-12T12:08:45.219Z,2.80
2019-02-12T12:11:14.400Z,2.90
2019-02-12T12:13:44.403Z,2.80
2019-02-12T12:16:13.288Z,2.80
2019-02-12T12:18:41.817Z,2.70
2019-02-12T12:21:10.161Z,2.70
2019-02-12T12:23:39.365Z,2.70
2019-02-12T12:26:08.044Z,2.80
2019-02-12T12:28:36.493Z,2.80
2019-02-12T12:31:06.229Z,2.70
2019-02-12T12:33:34.891Z,2.70
2019-02-12T12:36:03.839Z,2.80
2019-02-12T12:38:34.307Z,2.90
2019-02-12T12:41:02.696Z,2.90
2019-02-12T12:43:31.043Z,3.00
2019-02-12T12:45:59.434Z,2.90
2019-02-12T12:48:28.205Z,2.80
2019-02-12T12:50:56.571Z,2.90
2019-02-12T12:53:24.941Z,2.80
2019-02-12T12:55:54.980Z,2.90
2019-02-12T12:58:24.979Z,2.90
2019-02-12T13:00:56.736Z,2.90
2019-02-12T13:03:27.180Z,2.90
2019-02-12T13:05:55.620Z,2.90
2019-02-12T13:08:24.004Z,2.90
2019-02-12T13:10:52.383Z,2.80
2019-02-12T13:13:20.763Z,2.90
2019-02-12T13:15:50.500Z,2.80
2019-02-12T13:18:20.861Z,2.90
2019-02-12T13:20:49.288Z,3.00
2019-02-12T13:23:17.667Z,3.00
2019-02-12T13:25:46.115Z,3.00
2019-02-12T13:28:14.521Z,3.00
2019-02-12T13:30:42.904Z,3.00
2019-02-12T13:33:11.277Z,3.10
2019-02-12T13:35:39.687Z,3.10
2019-02-12T13:38:08.155Z,3.30
2019-02-12T13:40:36.515Z,3.10
2019-02-12T13:43:04.887Z,3.10
2019-02-12T13:45:33.253Z,3.20
2019-02-12T13:48:01.651Z,3.20
2019-02-12T13:50:33.324Z,3.20
2019-02-12T13:53:02.186Z,3.20
2019-02-12T13:55:30.625Z,3.20
2019-02-12T13:57:58.960Z,3.30
2019-02-12T14:00:27.355Z,3.30
2019-02-12T14:02:56.339Z,3.30
2019-02-12T14:05:27.182Z,3.20
2019-02-12T14:07:56.589Z,3.30
2019-02-12T14:10:24.906Z,3.20
2019-02-12T14:12:53.457Z,3.20
2019-02-12T14:15:21.973Z,3.30
2019-02-12T14:17:50.361Z,3.20
2019-02-12T14:20:19.391Z,3.30
2019-02-12T14:22:57.922Z,3.30
2019-02-12T14:25:26.297Z,3.40
2019-02-12T14:27:54.688Z,3.30
2019-02-12T14:30:23.518Z,3.40
2019-02-12T14:32:53.109Z,3.40
2019-02-12T14:35:22.159Z,3.40
2019-02-12T14:37:58.174Z,3.40
2019-02-12T14:40:26.534Z,3.40
2019-02-12T14:42:55.279Z,3.30
2019-02-12T14:45:23.679Z,3.40
2019-02-12T14:47:53.562Z,3.40
2019-02-12T14:50:25.876Z,3.40
2019-02-12T14:52:56.897Z,3.40
2019-02-12T14:58:38.268Z,3.50
2019-02-12T15:09:56.824Z,3.40
2019-02-12T15:12:26.260Z,3.40
2019-02-12T15:14:55.492Z,3.40
2019-02-12T15:17:33.022Z,3.40
2019-02-12T15:20:03.504Z,3.40
2019-02-12T15:22:39.261Z,3.30
2019-02-12T15:25:25.096Z,3.30
2019-02-12T15:27:56.376Z,3.30
2019-02-12T15:30:24.800Z,3.30
2019-02-12T15:32:54.286Z,3.20
2019-02-12T15:35:22.628Z,3.20
2019-02-12T15:37:51.032Z,3.20
2019-02-12T15:40:21.549Z,3.10
2019-02-12T15:42:49.912Z,3.10
2019-02-12T15:45:22.677Z,3.10
2019-02-12T15:47:52.126Z,3.10
2019-02-12T15:50:24.646Z,3.10
2019-02-12T15:52:57.077Z,3.10
2019-02-12T15:55:42.152Z,3.10
2019-02-12T15:58:08.004Z,3.00
2019-02-12T16:03:38.162Z,3.00
2019-02-12T16:06:08.244Z,3.00
2019-02-12T16:08:40.146Z,2.90
2019-02-12T16:11:11.516Z,2.90
2019-02-12T16:13:45.204Z,2.90
2019-02-12T16:16:20.368Z,3.00
2019-02-12T16:18:55.631Z,2.90
2019-02-12T16:21:29.424Z,2.90
2019-02-12T16:24:00.571Z,2.90
2019-02-12T16:26:30.256Z,2.90
2019-02-12T16:29:05.554Z,2.90
2019-02-12T16:31:38.094Z,2.90
2019-02-12T16:34:11.732Z,2.90
2019-02-12T16:36:41.580Z,2.90
2019-02-12T16:39:13.854Z,2.90
2019-02-12T16:41:46.240Z,2.80
2019-02-12T16:44:16.456Z,2.80
2019-02-12T16:46:47.064Z,2.70
2019-02-12T16:49:17.044Z,2.70
2019-02-12T16:51:46.942Z,2.70
2019-02-12T16:54:16.002Z,2.60
2019-02-12T16:56:45.670Z,2.50
2019-02-12T17:00:07.438Z,2.60
2019-02-12T17:01:52.875Z,2.60
2019-02-12T17:04:22.646Z,2.60
2019-02-12T17:06:52.139Z,2.50
2019-02-12T17:09:20.516Z,2.60
2019-02-12T17:11:48.905Z,2.50
2019-02-12T17:14:21.802Z,2.50
2019-02-12T17:16:50.204Z,2.50
2019-02-12T17:19:18.601Z,2.50
2019-02-12T17:21:47.019Z,2.50
2019-02-12T17:24:21.185Z,2.50
2019-02-12T17:26:50.880Z,2.50
2019-02-12T17:29:19.875Z,2.40
2019-02-12T17:31:51.874Z,2.40
2019-02-12T17:34:21.946Z,2.40
2019-02-12T17:36:51.761Z,2.30
2019-02-12T17:39:20.167Z,2.30
2019-02-12T17:41:48.506Z,2.20
2019-02-12T17:44:18.125Z,2.30
2019-02-12T17:46:46.475Z,2.30
2019-02-12T17:49:14.895Z,2.20
2019-02-12T17:51:43.279Z,2.20
2019-02-12T17:54:11.768Z,2.20
2019-02-12T17:56:41.694Z,2.10
2019-02-12T17:59:10.029Z,2.00
2019-02-12T18:01:45.089Z,2.00
2019-02-12T18:04:15.598Z,2.10
2019-02-12T18:06:45.483Z,2.00
2019-02-12T18:09:17.368Z,1.90
2019-02-12T18:11:46.908Z,1.90
2019-02-12T18:14:16.945Z,2.00
2019-02-12T18:16:45.309Z,1.90
2019-02-12T18:19:15.011Z,1.90
2019-02-12T18:21:43.381Z,1.90
2019-02-12T18:24:11.780Z,1.80
2019-02-12T18:26:40.154Z,1.80
2019-02-12T18:29:09.075Z,1.80
2019-02-12T18:31:37.491Z,1.80
2019-02-12T18:34:05.859Z,1.70
2019-02-12T18:36:34.230Z,1.80
2019-02-12T18:39:04.335Z,1.70
2019-02-12T18:41:32.717Z,1.70
2019-02-12T18:44:03.989Z,1.70
2019-02-12T18:46:32.382Z,1.70
2019-02-12T18:49:00.743Z,1.70
2019-02-12T18:51:29.123Z,1.70
2019-02-12T18:53:57.607Z,1.70
2019-02-12T18:56:26.850Z,1.60
2019-02-12T18:58:55.216Z,1.70
2019-02-12T19:01:23.695Z,1.70
2019-02-12T19:03:56.638Z,1.60
2019-02-12T19:06:27.460Z,1.60
2019-02-12T19:09:05.803Z,1.60
2019-02-12T19:11:45.714Z,1.60
2019-02-12T19:14:05.601Z,1.50
2019-02-12T19:16:34.467Z,1.50
2019-02-12T19:19:03.471Z,1.50
2019-02-12T19:21:33.887Z,1.50
2019-02-12T19:24:04.213Z,1.40
2019-02-12T19:29:27.819Z,1.40
2019-02-12T19:31:59.386Z,1.40
2019-02-12T19:34:31.168Z,1.30
2019-02-12T19:36:59.499Z,1.30
2019-02-12T19:39:27.945Z,1.30
2019-02-12T19:41:56.694Z,1.30
2019-02-12T19:44:25.257Z,1.30
2019-02-12T19:46:53.632Z,1.20
2019-02-12T19:49:23.226Z,1.20
2019-02-12T19:51:51.605Z,1.20
2019-02-12T19:54:27.050Z,1.20
2019-02-12T19:57:03.624Z,1.20
2019-02-12T19:59:32.611Z,1.10
2019-02-12T20:02:01.012Z,1.10
2019-02-12T20:04:32.955Z,1.10
2019-02-12T20:07:03.871Z,1.10
2019-02-12T20:09:32.890Z,1.10
2019-02-12T20:12:01.285Z,1.00
2019-02-12T20:14:32.453Z,1.00
2019-02-12T20:17:00.875Z,0.90
2019-02-12T20:19:29.295Z,1.00
2019-02-12T20:22:01.143Z,1.00
2019-02-12T20:24:33.499Z,0.90
2019-02-12T20:27:06.773Z,0.90
2019-02-12T20:29:37.207Z,0.90
2019-02-12T20:32:05.558Z,0.90
2019-02-12T20:34:39.029Z,0.90
2019-02-12T20:37:15.605Z,0.90
2019-02-12T20:39:56.300Z,0.90
2019-02-12T20:42:26.002Z,0.90
2019-02-12T20:44:57.392Z,0.90
2019-02-12T20:47:30.491Z,0.90
2019-02-12T20:50:04.498Z,0.90
2019-02-12T20:52:35.456Z,0.90
2019-02-12T20:55:25.567Z,0.90
2019-02-12T20:57:56.759Z,0.80
2019-02-12T21:00:25.546Z,0.90
2019-02-12T21:02:56.061Z,0.90
2019-02-12T21:05:34.478Z,0.90
2019-02-12T21:08:14.240Z,0.90
2019-02-12T21:11:01.998Z,0.90
2019-02-12T21:13:36.577Z,0.90
2019-02-12T21:16:11.717Z,0.80
2019-02-12T21:21:37.244Z,0.80
2019-02-12T21:24:12.589Z,0.80
2019-02-12T21:27:02.475Z,0.80
2019-02-12T21:29:32.520Z,0.80
2019-02-12T21:32:02.013Z,0.80
2019-02-12T21:34:33.821Z,0.80
2019-02-12T21:37:02.255Z,0.80
2019-02-12T21:39:32.172Z,0.70
2019-02-12T21:42:00.849Z,0.70
2019-02-12T21:44:29.743Z,0.70
2019-02-12T21:46:59.759Z,0.70
2019-02-12T21:49:37.037Z,0.70
2019-02-12T21:52:06.044Z,0.70
2019-02-12T21:54:34.435Z,0.70
2019-02-12T21:57:04.690Z,0.60
2019-02-12T21:59:33.291Z,0.60
2019-02-12T22:02:03.734Z,0.70
2019-02-12T22:04:34.812Z,0.70
2019-02-12T22:07:06.244Z,0.70
2019-02-12T22:09:39.114Z,0.70
2019-02-12T22:12:07.521Z,0.70
2019-02-12T22:14:36.515Z,0.70
2019-02-12T22:17:05.527Z,0.60
2019-02-12T22:19:36.655Z,0.60
2019-02-12T22:22:05.130Z,0.60
2019-02-12T22:24:35.198Z,0.60
2019-02-12T22:27:04.148Z,0.60
2019-02-12T22:29:32.515Z,0.60
2019-02-12T22:32:00.951Z,0.50
2019-02-12T22:34:31.062Z,0.50
2019-02-12T22:37:04.748Z,0.50
2019-02-12T22:39:43.504Z,0.50
2019-02-12T22:42:14.170Z,0.50
2019-02-12T22:44:42.916Z,0.50
2019-02-12T22:47:11.372Z,0.50
2019-02-12T22:49:39.818Z,0.50
2019-02-12T22:52:08.228Z,0.40
2019-02-12T22:54:36.934Z,0.40
2019-02-12T22:57:07.092Z,0.40
2019-02-12T22:59:37.045Z,0.40
2019-02-12T23:02:05.641Z,0.40
2019-02-12T23:04:35.119Z,0.40
2019-02-12T23:07:05.388Z,0.30
2019-02-12T23:09:36.534Z,0.30
2019-02-12T23:12:05.982Z,0.30
2019-02-12T23:14:38.931Z,0.30
2019-02-12T23:17:08.934Z,0.30
2019-02-12T23:19:39.630Z,0.30
2019-02-12T23:22:07.942Z,0.30
2019-02-12T23:24:42.832Z,0.30
2019-02-12T23:27:11.919Z,0.30
2019-02-12T23:29:40.295Z,0.30
2019-02-12T23:32:11.468Z,0.30
2019-02-12T23:34:39.838Z,0.30
2019-02-12T23:37:08.216Z,0.30
2019-02-12T23:39:40.916Z,0.30
2019-02-12T23:42:10.223Z,0.30
2019-02-12T23:44:40.584Z,0.20
2019-02-12T23:47:10.530Z,0.20
2019-02-12T23:49:40.214Z,0.20
2019-02-12T23:52:08.592Z,0.20
2019-02-12T23:54:41.028Z,0.10
2019-02-12T23:58:07.268Z,0.10
